sensor_id;sensor_type;location;lat;lon;timestamp;P1;durP1;ratioP1;P2;durP2;ratioP2
5811;SDS011;2932;52.400;9.558;2023-07-13T00:00:28;1.85;;;1.50;;
5811;SDS011;2932;52.400;9.558;2023-07-13T00:02:55;2.63;;;1.70;;
5811;SDS011;2932;52.400;9.558;2023-07-13T00:05:21;4.70;;;1.98;;
5811;SDS011;2932;52.400;9.558;2023-07-13T00:07:47;3.65;;;1.98;;
5811;SDS011;2932;52.400;9.558;2023-07-13T00:10:13;3.67;;;2.03;;
5811;SDS011;2932;52.400;9.558;2023-07-13T00:12:39;4.00;;;2.15;;
5811;SDS011;2932;52.400;9.558;2023-07-13T00:15:06;3.60;;;1.98;;
5811;SDS011;2932;52.400;9.558;2023-07-13T00:17:37;3.47;;;1.80;;
5811;SDS011;2932;52.400;9.558;2023-07-13T00:20:04;4.38;;;1.92;;
5811;SDS011;2932;52.400;9.558;2023-07-13T00:22:30;3.65;;;1.90;;
5811;SDS011;2932;52.400;9.558;2023-07-13T00:24:55;2.05;;;1.50;;
5811;SDS011;2932;52.400;9.558;2023-07-13T00:27:21;2.85;;;1.80;;
5811;SDS011;2932;52.400;9.558;2023-07-13T00:29:47;2.47;;;1.42;;
5811;SDS011;2932;52.400;9.558;2023-07-13T00:32:12;3.83;;;1.52;;
5811;SDS011;2932;52.400;9.558;2023-07-13T00:34:38;1.67;;;1.50;;
5811;SDS011;2932;52.400;9.558;2023-07-13T00:37:04;2.20;;;1.58;;
5811;SDS011;2932;52.400;9.558;2023-07-13T00:39:31;4.75;;;1.88;;
5811;SDS011;2932;52.400;9.558;2023-07-13T00:41:58;3.72;;;1.63;;
5811;SDS011;2932;52.400;9.558;2023-07-13T00:44:23;2.80;;;1.48;;
5811;SDS011;2932;52.400;9.558;2023-07-13T00:46:49;3.53;;;1.65;;
5811;SDS011;2932;52.400;9.558;2023-07-13T00:49:15;3.63;;;1.70;;
5811;SDS011;2932;52.400;9.558;2023-07-13T00:52:04;2.70;;;1.70;;
5811;SDS011;2932;52.400;9.558;2023-07-13T00:54:32;5.32;;;2.00;;
5811;SDS011;2932;52.400;9.558;2023-07-13T00:57:02;6.05;;;1.83;;
5811;SDS011;2932;52.400;9.558;2023-07-13T00:59:30;3.55;;;1.80;;
5811;SDS011;2932;52.400;9.558;2023-07-13T01:01:58;2.97;;;1.77;;
5811;SDS011;2932;52.400;9.558;2023-07-13T01:04:26;2.83;;;1.75;;
5811;SDS011;2932;52.400;9.558;2023-07-13T01:06:52;3.60;;;1.85;;
5811;SDS011;2932;52.400;9.558;2023-07-13T01:09:18;2.13;;;1.75;;
5811;SDS011;2932;52.400;9.558;2023-07-13T01:11:45;2.40;;;1.85;;
5811;SDS011;2932;52.400;9.558;2023-07-13T01:14:10;2.50;;;1.70;;
5811;SDS011;2932;52.400;9.558;2023-07-13T01:16:36;4.15;;;1.88;;
5811;SDS011;2932;52.400;9.558;2023-07-13T01:19:03;5.28;;;2.03;;
5811;SDS011;2932;52.400;9.558;2023-07-13T01:21:41;3.88;;;2.42;;
5811;SDS011;2932;52.400;9.558;2023-07-13T01:24:08;4.25;;;2.08;;
5811;SDS011;2932;52.400;9.558;2023-07-13T01:26:34;4.05;;;2.00;;
5811;SDS011;2932;52.400;9.558;2023-07-13T01:28:59;4.90;;;1.70;;
5811;SDS011;2932;52.400;9.558;2023-07-13T01:31:25;2.83;;;1.80;;
5811;SDS011;2932;52.400;9.558;2023-07-13T01:33:51;4.43;;;1.50;;
5811;SDS011;2932;52.400;9.558;2023-07-13T01:36:16;5.32;;;1.55;;
5811;SDS011;2932;52.400;9.558;2023-07-13T01:38:42;2.72;;;1.50;;
5811;SDS011;2932;52.400;9.558;2023-07-13T01:41:07;4.38;;;1.85;;
5811;SDS011;2932;52.400;9.558;2023-07-13T01:43:33;4.72;;;1.70;;
5811;SDS011;2932;52.400;9.558;2023-07-13T01:45:58;3.38;;;1.85;;
5811;SDS011;2932;52.400;9.558;2023-07-13T01:48:23;3.45;;;1.75;;
5811;SDS011;2932;52.400;9.558;2023-07-13T01:50:49;3.47;;;1.80;;
5811;SDS011;2932;52.400;9.558;2023-07-13T01:53:14;4.03;;;1.90;;
5811;SDS011;2932;52.400;9.558;2023-07-13T01:55:41;3.35;;;2.13;;
5811;SDS011;2932;52.400;9.558;2023-07-13T01:58:06;7.50;;;1.90;;
5811;SDS011;2932;52.400;9.558;2023-07-13T02:00:31;3.97;;;2.00;;
5811;SDS011;2932;52.400;9.558;2023-07-13T02:02:57;4.32;;;1.83;;
5811;SDS011;2932;52.400;9.558;2023-07-13T02:05:23;4.47;;;1.90;;
5811;SDS011;2932;52.400;9.558;2023-07-13T02:07:48;5.57;;;1.92;;
5811;SDS011;2932;52.400;9.558;2023-07-13T02:10:14;2.45;;;1.70;;
5811;SDS011;2932;52.400;9.558;2023-07-13T02:12:40;3.08;;;1.90;;
5811;SDS011;2932;52.400;9.558;2023-07-13T02:15:05;3.33;;;1.67;;
5811;SDS011;2932;52.400;9.558;2023-07-13T02:17:31;4.30;;;1.75;;
5811;SDS011;2932;52.400;9.558;2023-07-13T02:19:57;3.38;;;1.90;;
5811;SDS011;2932;52.400;9.558;2023-07-13T02:22:22;8.80;;;3.00;;
5811;SDS011;2932;52.400;9.558;2023-07-13T02:24:48;6.70;;;3.08;;
5811;SDS011;2932;52.400;9.558;2023-07-13T02:27:14;4.45;;;2.22;;
5811;SDS011;2932;52.400;9.558;2023-07-13T02:29:39;4.75;;;2.00;;
5811;SDS011;2932;52.400;9.558;2023-07-13T02:32:05;6.10;;;2.10;;
5811;SDS011;2932;52.400;9.558;2023-07-13T02:34:31;4.38;;;1.88;;
5811;SDS011;2932;52.400;9.558;2023-07-13T02:36:56;7.35;;;2.17;;
5811;SDS011;2932;52.400;9.558;2023-07-13T02:39:22;4.13;;;2.08;;
5811;SDS011;2932;52.400;9.558;2023-07-13T02:41:47;3.67;;;2.03;;
5811;SDS011;2932;52.400;9.558;2023-07-13T02:44:13;4.25;;;2.33;;
5811;SDS011;2932;52.400;9.558;2023-07-13T02:46:39;3.88;;;1.80;;
5811;SDS011;2932;52.400;9.558;2023-07-13T02:49:05;1.77;;;1.48;;
5811;SDS011;2932;52.400;9.558;2023-07-13T02:51:31;3.20;;;1.67;;
5811;SDS011;2932;52.400;9.558;2023-07-13T02:53:59;3.70;;;2.00;;
5811;SDS011;2932;52.400;9.558;2023-07-13T02:56:26;3.38;;;1.65;;
5811;SDS011;2932;52.400;9.558;2023-07-13T02:58:52;4.70;;;1.80;;
5811;SDS011;2932;52.400;9.558;2023-07-13T03:01:19;4.80;;;1.88;;
5811;SDS011;2932;52.400;9.558;2023-07-13T03:03:45;4.40;;;1.50;;
5811;SDS011;2932;52.400;9.558;2023-07-13T03:06:11;4.30;;;1.73;;
5811;SDS011;2932;52.400;9.558;2023-07-13T03:08:37;3.25;;;1.60;;
5811;SDS011;2932;52.400;9.558;2023-07-13T03:11:04;5.65;;;1.50;;
5811;SDS011;2932;52.400;9.558;2023-07-13T03:13:31;5.20;;;2.40;;
5811;SDS011;2932;52.400;9.558;2023-07-13T03:15:57;4.90;;;1.77;;
5811;SDS011;2932;52.400;9.558;2023-07-13T03:18:22;3.80;;;1.67;;
5811;SDS011;2932;52.400;9.558;2023-07-13T03:20:51;2.90;;;1.50;;
5811;SDS011;2932;52.400;9.558;2023-07-13T03:23:16;3.45;;;1.50;;
5811;SDS011;2932;52.400;9.558;2023-07-13T03:25:42;4.80;;;1.50;;
5811;SDS011;2932;52.400;9.558;2023-07-13T03:28:07;4.63;;;1.40;;
5811;SDS011;2932;52.400;9.558;2023-07-13T03:30:33;2.72;;;1.38;;
5811;SDS011;2932;52.400;9.558;2023-07-13T03:32:58;3.58;;;1.52;;
5811;SDS011;2932;52.400;9.558;2023-07-13T03:35:23;2.25;;;1.48;;
5811;SDS011;2932;52.400;9.558;2023-07-13T03:37:49;7.13;;;1.88;;
5811;SDS011;2932;52.400;9.558;2023-07-13T03:40:14;2.83;;;1.38;;
5811;SDS011;2932;52.400;9.558;2023-07-13T03:42:40;5.28;;;1.50;;
5811;SDS011;2932;52.400;9.558;2023-07-13T03:45:05;5.10;;;1.40;;
5811;SDS011;2932;52.400;9.558;2023-07-13T03:47:31;3.17;;;1.40;;
5811;SDS011;2932;52.400;9.558;2023-07-13T03:49:56;3.22;;;1.38;;
5811;SDS011;2932;52.400;9.558;2023-07-13T03:52:21;6.30;;;1.63;;
5811;SDS011;2932;52.400;9.558;2023-07-13T03:54:47;4.47;;;1.73;;
5811;SDS011;2932;52.400;9.558;2023-07-13T03:57:12;4.82;;;1.70;;
5811;SDS011;2932;52.400;9.558;2023-07-13T03:59:38;2.83;;;1.30;;
5811;SDS011;2932;52.400;9.558;2023-07-13T04:02:03;4.97;;;1.58;;
5811;SDS011;2932;52.400;9.558;2023-07-13T04:04:30;3.78;;;1.20;;
5811;SDS011;2932;52.400;9.558;2023-07-13T04:06:55;5.22;;;1.55;;
5811;SDS011;2932;52.400;9.558;2023-07-13T04:09:23;5.45;;;1.63;;
5811;SDS011;2932;52.400;9.558;2023-07-13T04:11:48;3.88;;;1.35;;
5811;SDS011;2932;52.400;9.558;2023-07-13T04:14:14;3.20;;;1.40;;
5811;SDS011;2932;52.400;9.558;2023-07-13T04:16:39;2.83;;;1.30;;
5811;SDS011;2932;52.400;9.558;2023-07-13T04:19:04;3.03;;;1.30;;
5811;SDS011;2932;52.400;9.558;2023-07-13T04:21:30;3.97;;;1.25;;
5811;SDS011;2932;52.400;9.558;2023-07-13T04:23:56;5.32;;;1.23;;
5811;SDS011;2932;52.400;9.558;2023-07-13T04:26:21;4.63;;;1.77;;
5811;SDS011;2932;52.400;9.558;2023-07-13T04:28:47;4.68;;;1.42;;
5811;SDS011;2932;52.400;9.558;2023-07-13T04:31:13;2.58;;;1.25;;
5811;SDS011;2932;52.400;9.558;2023-07-13T04:33:39;4.75;;;1.60;;
5811;SDS011;2932;52.400;9.558;2023-07-13T04:36:05;2.95;;;1.40;;
5811;SDS011;2932;52.400;9.558;2023-07-13T04:38:31;5.70;;;1.95;;
5811;SDS011;2932;52.400;9.558;2023-07-13T04:41:02;5.72;;;1.50;;
5811;SDS011;2932;52.400;9.558;2023-07-13T04:43:29;7.68;;;1.83;;
5811;SDS011;2932;52.400;9.558;2023-07-13T04:45:56;7.32;;;1.55;;
5811;SDS011;2932;52.400;9.558;2023-07-13T04:48:22;4.78;;;1.42;;
5811;SDS011;2932;52.400;9.558;2023-07-13T04:50:48;8.38;;;1.65;;
5811;SDS011;2932;52.400;9.558;2023-07-13T04:53:19;9.32;;;1.80;;
5811;SDS011;2932;52.400;9.558;2023-07-13T04:55:45;6.90;;;1.40;;
5811;SDS011;2932;52.400;9.558;2023-07-13T04:58:12;3.13;;;1.52;;
5811;SDS011;2932;52.400;9.558;2023-07-13T05:00:37;4.47;;;1.48;;
5811;SDS011;2932;52.400;9.558;2023-07-13T05:03:02;6.70;;;1.63;;
5811;SDS011;2932;52.400;9.558;2023-07-13T05:05:28;2.60;;;1.60;;
5811;SDS011;2932;52.400;9.558;2023-07-13T05:07:53;6.22;;;1.80;;
5811;SDS011;2932;52.400;9.558;2023-07-13T05:10:19;5.15;;;1.45;;
5811;SDS011;2932;52.400;9.558;2023-07-13T05:12:44;3.22;;;1.30;;
5811;SDS011;2932;52.400;9.558;2023-07-13T05:15:10;7.50;;;2.17;;
5811;SDS011;2932;52.400;9.558;2023-07-13T05:17:36;6.32;;;1.60;;
5811;SDS011;2932;52.400;9.558;2023-07-13T05:20:04;7.75;;;1.40;;
5811;SDS011;2932;52.400;9.558;2023-07-13T05:22:30;4.75;;;1.55;;
5811;SDS011;2932;52.400;9.558;2023-07-13T05:24:56;4.35;;;1.10;;
5811;SDS011;2932;52.400;9.558;2023-07-13T05:27:21;5.15;;;1.52;;
5811;SDS011;2932;52.400;9.558;2023-07-13T05:29:46;8.02;;;1.70;;
5811;SDS011;2932;52.400;9.558;2023-07-13T05:32:12;5.18;;;1.33;;
5811;SDS011;2932;52.400;9.558;2023-07-13T05:34:37;5.15;;;1.60;;
5811;SDS011;2932;52.400;9.558;2023-07-13T05:37:03;6.10;;;1.95;;
5811;SDS011;2932;52.400;9.558;2023-07-13T05:39:28;4.18;;;1.90;;
5811;SDS011;2932;52.400;9.558;2023-07-13T05:41:54;6.35;;;1.70;;
5811;SDS011;2932;52.400;9.558;2023-07-13T05:44:19;3.85;;;1.60;;
5811;SDS011;2932;52.400;9.558;2023-07-13T05:46:45;6.47;;;1.80;;
5811;SDS011;2932;52.400;9.558;2023-07-13T05:49:10;2.53;;;1.50;;
5811;SDS011;2932;52.400;9.558;2023-07-13T05:51:36;4.97;;;1.40;;
5811;SDS011;2932;52.400;9.558;2023-07-13T05:54:01;8.18;;;2.00;;
5811;SDS011;2932;52.400;9.558;2023-07-13T05:56:26;5.53;;;1.83;;
5811;SDS011;2932;52.400;9.558;2023-07-13T05:58:52;4.25;;;1.60;;
5811;SDS011;2932;52.400;9.558;2023-07-13T06:01:17;6.82;;;1.75;;
5811;SDS011;2932;52.400;9.558;2023-07-13T06:03:45;3.67;;;1.88;;
5811;SDS011;2932;52.400;9.558;2023-07-13T06:06:10;7.43;;;1.83;;
5811;SDS011;2932;52.400;9.558;2023-07-13T06:08:36;6.63;;;1.88;;
5811;SDS011;2932;52.400;9.558;2023-07-13T06:11:03;4.95;;;2.05;;
5811;SDS011;2932;52.400;9.558;2023-07-13T06:13:40;3.75;;;1.48;;
5811;SDS011;2932;52.400;9.558;2023-07-13T06:16:05;7.35;;;2.00;;
5811;SDS011;2932;52.400;9.558;2023-07-13T06:18:32;5.15;;;2.17;;
5811;SDS011;2932;52.400;9.558;2023-07-13T06:20:58;8.05;;;1.88;;
5811;SDS011;2932;52.400;9.558;2023-07-13T06:23:24;6.82;;;1.63;;
5811;SDS011;2932;52.400;9.558;2023-07-13T06:25:49;6.40;;;1.50;;
5811;SDS011;2932;52.400;9.558;2023-07-13T06:28:15;7.40;;;1.83;;
5811;SDS011;2932;52.400;9.558;2023-07-13T06:30:40;4.20;;;1.80;;
5811;SDS011;2932;52.400;9.558;2023-07-13T06:33:06;5.40;;;1.60;;
5811;SDS011;2932;52.400;9.558;2023-07-13T06:35:31;4.50;;;1.85;;
5811;SDS011;2932;52.400;9.558;2023-07-13T06:37:56;2.78;;;1.73;;
5811;SDS011;2932;52.400;9.558;2023-07-13T06:40:22;3.58;;;1.42;;
5811;SDS011;2932;52.400;9.558;2023-07-13T06:42:47;4.95;;;1.50;;
5811;SDS011;2932;52.400;9.558;2023-07-13T06:45:12;5.97;;;2.08;;
5811;SDS011;2932;52.400;9.558;2023-07-13T06:47:38;7.30;;;2.10;;
5811;SDS011;2932;52.400;9.558;2023-07-13T06:50:03;6.60;;;1.70;;
5811;SDS011;2932;52.400;9.558;2023-07-13T06:52:28;4.72;;;1.80;;
5811;SDS011;2932;52.400;9.558;2023-07-13T06:54:54;8.18;;;1.75;;
5811;SDS011;2932;52.400;9.558;2023-07-13T06:57:19;6.75;;;1.80;;
5811;SDS011;2932;52.400;9.558;2023-07-13T06:59:44;7.22;;;1.67;;
5811;SDS011;2932;52.400;9.558;2023-07-13T07:02:10;4.00;;;1.98;;
5811;SDS011;2932;52.400;9.558;2023-07-13T07:04:36;4.18;;;1.70;;
5811;SDS011;2932;52.400;9.558;2023-07-13T07:07:02;4.53;;;1.70;;
5811;SDS011;2932;52.400;9.558;2023-07-13T07:09:27;4.63;;;1.70;;
5811;SDS011;2932;52.400;9.558;2023-07-13T07:11:55;3.80;;;1.38;;
5811;SDS011;2932;52.400;9.558;2023-07-13T07:14:20;4.68;;;1.55;;
5811;SDS011;2932;52.400;9.558;2023-07-13T07:16:45;6.20;;;1.90;;
5811;SDS011;2932;52.400;9.558;2023-07-13T07:19:11;4.22;;;1.60;;
5811;SDS011;2932;52.400;9.558;2023-07-13T07:21:36;5.03;;;1.35;;
5811;SDS011;2932;52.400;9.558;2023-07-13T07:24:01;6.35;;;1.80;;
5811;SDS011;2932;52.400;9.558;2023-07-13T07:26:28;8.32;;;1.80;;
5811;SDS011;2932;52.400;9.558;2023-07-13T07:28:53;9.60;;;1.60;;
5811;SDS011;2932;52.400;9.558;2023-07-13T07:31:19;6.93;;;1.50;;
5811;SDS011;2932;52.400;9.558;2023-07-13T07:33:44;4.97;;;1.52;;
5811;SDS011;2932;52.400;9.558;2023-07-13T07:36:09;3.53;;;1.25;;
5811;SDS011;2932;52.400;9.558;2023-07-13T07:38:35;3.58;;;1.42;;
5811;SDS011;2932;52.400;9.558;2023-07-13T07:41:04;7.20;;;1.40;;
5811;SDS011;2932;52.400;9.558;2023-07-13T07:43:29;5.30;;;1.60;;
5811;SDS011;2932;52.400;9.558;2023-07-13T07:45:55;6.75;;;1.55;;
5811;SDS011;2932;52.400;9.558;2023-07-13T07:48:20;4.70;;;1.55;;
5811;SDS011;2932;52.400;9.558;2023-07-13T07:50:45;6.03;;;1.65;;
5811;SDS011;2932;52.400;9.558;2023-07-13T07:53:11;3.97;;;1.30;;
5811;SDS011;2932;52.400;9.558;2023-07-13T07:55:36;5.40;;;1.33;;
5811;SDS011;2932;52.400;9.558;2023-07-13T07:58:01;4.10;;;1.50;;
5811;SDS011;2932;52.400;9.558;2023-07-13T08:00:27;6.43;;;1.50;;
5811;SDS011;2932;52.400;9.558;2023-07-13T08:02:55;5.90;;;1.73;;
5811;SDS011;2932;52.400;9.558;2023-07-13T08:05:20;4.72;;;1.65;;
5811;SDS011;2932;52.400;9.558;2023-07-13T08:07:46;4.75;;;1.85;;
5811;SDS011;2932;52.400;9.558;2023-07-13T08:10:11;4.38;;;1.40;;
5811;SDS011;2932;52.400;9.558;2023-07-13T08:12:37;5.03;;;1.20;;
5811;SDS011;2932;52.400;9.558;2023-07-13T08:15:03;5.60;;;1.55;;
5811;SDS011;2932;52.400;9.558;2023-07-13T08:17:29;3.45;;;1.33;;
5811;SDS011;2932;52.400;9.558;2023-07-13T08:19:55;7.28;;;1.70;;
5811;SDS011;2932;52.400;9.558;2023-07-13T08:22:20;6.25;;;1.70;;
5811;SDS011;2932;52.400;9.558;2023-07-13T08:24:46;3.00;;;1.80;;
5811;SDS011;2932;52.400;9.558;2023-07-13T08:27:12;7.47;;;1.35;;
5811;SDS011;2932;52.400;9.558;2023-07-13T08:29:38;5.65;;;1.63;;
5811;SDS011;2932;52.400;9.558;2023-07-13T08:32:04;5.10;;;1.92;;
5811;SDS011;2932;52.400;9.558;2023-07-13T08:34:31;5.30;;;1.75;;
5811;SDS011;2932;52.400;9.558;2023-07-13T08:36:56;6.78;;;1.52;;
5811;SDS011;2932;52.400;9.558;2023-07-13T08:39:21;4.28;;;1.67;;
5811;SDS011;2932;52.400;9.558;2023-07-13T08:41:47;6.32;;;1.70;;
5811;SDS011;2932;52.400;9.558;2023-07-13T08:44:27;4.70;;;1.52;;
5811;SDS011;2932;52.400;9.558;2023-07-13T08:47:05;6.28;;;2.20;;
5811;SDS011;2932;52.400;9.558;2023-07-13T08:49:32;5.55;;;1.65;;
5811;SDS011;2932;52.400;9.558;2023-07-13T08:54:40;6.55;;;1.83;;
5811;SDS011;2932;52.400;9.558;2023-07-13T08:57:12;6.35;;;1.60;;
5811;SDS011;2932;52.400;9.558;2023-07-13T08:59:40;7.65;;;1.80;;
5811;SDS011;2932;52.400;9.558;2023-07-13T09:05:03;5.68;;;1.45;;
5811;SDS011;2932;52.400;9.558;2023-07-13T09:07:39;5.32;;;1.67;;
5811;SDS011;2932;52.400;9.558;2023-07-13T09:10:23;3.45;;;1.58;;
5811;SDS011;2932;52.400;9.558;2023-07-13T09:15:39;5.72;;;1.60;;
5811;SDS011;2932;52.400;9.558;2023-07-13T09:20:46;6.57;;;1.70;;
5811;SDS011;2932;52.400;9.558;2023-07-13T09:23:16;3.10;;;1.60;;
5811;SDS011;2932;52.400;9.558;2023-07-13T09:25:45;5.20;;;1.73;;
5811;SDS011;2932;52.400;9.558;2023-07-13T09:30:52;6.03;;;1.55;;
5811;SDS011;2932;52.400;9.558;2023-07-13T09:33:25;3.22;;;1.55;;
5811;SDS011;2932;52.400;9.558;2023-07-13T09:35:54;3.80;;;1.23;;
5811;SDS011;2932;52.400;9.558;2023-07-13T09:38:20;4.07;;;1.48;;
5811;SDS011;2932;52.400;9.558;2023-07-13T09:46:36;5.50;;;1.40;;
5811;SDS011;2932;52.400;9.558;2023-07-13T09:49:02;6.43;;;1.40;;
5811;SDS011;2932;52.400;9.558;2023-07-13T09:51:28;5.22;;;1.40;;
5811;SDS011;2932;52.400;9.558;2023-07-13T09:53:54;3.58;;;1.50;;
5811;SDS011;2932;52.400;9.558;2023-07-13T09:56:23;3.30;;;1.40;;
5811;SDS011;2932;52.400;9.558;2023-07-13T09:58:51;4.65;;;1.50;;
5811;SDS011;2932;52.400;9.558;2023-07-13T10:01:30;4.70;;;1.70;;
5811;SDS011;2932;52.400;9.558;2023-07-13T10:03:58;6.80;;;1.35;;
5811;SDS011;2932;52.400;9.558;2023-07-13T10:06:24;4.47;;;1.35;;
5811;SDS011;2932;52.400;9.558;2023-07-13T10:08:51;4.00;;;1.30;;
5811;SDS011;2932;52.400;9.558;2023-07-13T10:11:27;3.60;;;1.30;;
5811;SDS011;2932;52.400;9.558;2023-07-13T10:14:14;2.83;;;1.17;;
5811;SDS011;2932;52.400;9.558;2023-07-13T10:16:42;3.85;;;1.38;;
5811;SDS011;2932;52.400;9.558;2023-07-13T10:19:51;2.65;;;1.00;;
5811;SDS011;2932;52.400;9.558;2023-07-13T10:22:00;4.53;;;1.40;;
5811;SDS011;2932;52.400;9.558;2023-07-13T10:24:30;3.63;;;1.13;;
5811;SDS011;2932;52.400;9.558;2023-07-13T10:29:29;2.90;;;1.30;;
5811;SDS011;2932;52.400;9.558;2023-07-13T10:32:00;5.20;;;1.27;;
5811;SDS011;2932;52.400;9.558;2023-07-13T10:34:25;3.70;;;1.50;;
5811;SDS011;2932;52.400;9.558;2023-07-13T10:36:51;3.35;;;1.40;;
5811;SDS011;2932;52.400;9.558;2023-07-13T10:39:18;3.70;;;1.55;;
5811;SDS011;2932;52.400;9.558;2023-07-13T10:41:46;3.92;;;1.50;;
5811;SDS011;2932;52.400;9.558;2023-07-13T10:44:19;2.58;;;1.05;;
5811;SDS011;2932;52.400;9.558;2023-07-13T10:46:51;4.43;;;1.50;;
5811;SDS011;2932;52.400;9.558;2023-07-13T10:49:19;3.50;;;1.23;;
5811;SDS011;2932;52.400;9.558;2023-07-13T10:51:46;2.95;;;1.30;;
5811;SDS011;2932;52.400;9.558;2023-07-13T10:54:19;3.45;;;1.30;;
5811;SDS011;2932;52.400;9.558;2023-07-13T11:00:26;4.10;;;1.38;;
5811;SDS011;2932;52.400;9.558;2023-07-13T11:02:43;5.55;;;1.75;;
5811;SDS011;2932;52.400;9.558;2023-07-13T11:07:53;2.83;;;1.20;;
5811;SDS011;2932;52.400;9.558;2023-07-13T11:10:46;3.63;;;1.42;;
5811;SDS011;2932;52.400;9.558;2023-07-13T11:16:01;5.03;;;1.15;;
5811;SDS011;2932;52.400;9.558;2023-07-13T11:18:38;3.25;;;1.30;;
5811;SDS011;2932;52.400;9.558;2023-07-13T11:21:16;5.85;;;1.50;;
5811;SDS011;2932;52.400;9.558;2023-07-13T11:24:01;2.53;;;1.25;;
5811;SDS011;2932;52.400;9.558;2023-07-13T11:31:56;2.65;;;1.10;;
5811;SDS011;2932;52.400;9.558;2023-07-13T11:37:02;3.08;;;1.17;;
5811;SDS011;2932;52.400;9.558;2023-07-13T11:39:29;3.38;;;1.20;;
5811;SDS011;2932;52.400;9.558;2023-07-13T11:41:59;2.33;;;0.98;;
5811;SDS011;2932;52.400;9.558;2023-07-13T11:44:29;2.38;;;1.17;;
5811;SDS011;2932;52.400;9.558;2023-07-13T11:46:56;4.15;;;1.23;;
5811;SDS011;2932;52.400;9.558;2023-07-13T11:49:26;4.35;;;1.10;;
5811;SDS011;2932;52.400;9.558;2023-07-13T11:51:55;3.70;;;1.20;;
5811;SDS011;2932;52.400;9.558;2023-07-13T11:56:55;4.63;;;1.15;;
5811;SDS011;2932;52.400;9.558;2023-07-13T11:59:25;5.47;;;1.08;;
5811;SDS011;2932;52.400;9.558;2023-07-13T12:01:52;2.75;;;1.23;;
5811;SDS011;2932;52.400;9.558;2023-07-13T12:04:27;5.55;;;1.35;;
5811;SDS011;2932;52.400;9.558;2023-07-13T12:06:57;3.17;;;1.13;;
5811;SDS011;2932;52.400;9.558;2023-07-13T12:09:28;4.60;;;1.25;;
5811;SDS011;2932;52.400;9.558;2023-07-13T12:11:54;2.17;;;1.08;;
5811;SDS011;2932;52.400;9.558;2023-07-13T12:14:22;4.10;;;1.10;;
5811;SDS011;2932;52.400;9.558;2023-07-13T12:16:50;2.42;;;1.10;;
5811;SDS011;2932;52.400;9.558;2023-07-13T12:19:20;2.97;;;1.25;;
5811;SDS011;2932;52.400;9.558;2023-07-13T12:21:47;3.00;;;1.23;;
5811;SDS011;2932;52.400;9.558;2023-07-13T12:24:14;2.35;;;1.42;;
5811;SDS011;2932;52.400;9.558;2023-07-13T12:26:41;2.53;;;1.27;;
5811;SDS011;2932;52.400;9.558;2023-07-13T12:29:07;2.05;;;1.27;;
5811;SDS011;2932;52.400;9.558;2023-07-13T12:31:37;2.53;;;1.40;;
5811;SDS011;2932;52.400;9.558;2023-07-13T12:34:10;3.20;;;1.48;;
5811;SDS011;2932;52.400;9.558;2023-07-13T12:36:52;2.83;;;1.30;;
5811;SDS011;2932;52.400;9.558;2023-07-13T12:44:45;2.95;;;1.30;;
5811;SDS011;2932;52.400;9.558;2023-07-13T12:47:12;9.95;;;1.27;;
5811;SDS011;2932;52.400;9.558;2023-07-13T12:49:43;1.17;;;0.90;;
5811;SDS011;2932;52.400;9.558;2023-07-13T12:52:15;5.38;;;1.50;;
5811;SDS011;2932;52.400;9.558;2023-07-13T12:54:51;2.13;;;1.30;;
5811;SDS011;2932;52.400;9.558;2023-07-13T12:57:18;1.52;;;1.10;;
5811;SDS011;2932;52.400;9.558;2023-07-13T12:59:43;3.05;;;1.17;;
5811;SDS011;2932;52.400;9.558;2023-07-13T13:02:17;3.83;;;1.70;;
5811;SDS011;2932;52.400;9.558;2023-07-13T13:04:50;2.90;;;1.33;;
5811;SDS011;2932;52.400;9.558;2023-07-13T13:07:16;5.15;;;1.50;;
5811;SDS011;2932;52.400;9.558;2023-07-13T13:09:45;2.45;;;1.17;;
5811;SDS011;2932;52.400;9.558;2023-07-13T13:12:12;3.15;;;1.60;;
5811;SDS011;2932;52.400;9.558;2023-07-13T13:14:37;2.70;;;1.50;;
5811;SDS011;2932;52.400;9.558;2023-07-13T13:17:04;2.13;;;1.25;;
5811;SDS011;2932;52.400;9.558;2023-07-13T13:19:46;4.75;;;1.45;;
5811;SDS011;2932;52.400;9.558;2023-07-13T13:22:12;3.00;;;1.95;;
5811;SDS011;2932;52.400;9.558;2023-07-13T13:24:37;5.78;;;1.70;;
5811;SDS011;2932;52.400;9.558;2023-07-13T13:27:03;4.18;;;1.70;;
5811;SDS011;2932;52.400;9.558;2023-07-13T13:29:31;3.22;;;1.30;;
5811;SDS011;2932;52.400;9.558;2023-07-13T13:31:58;3.58;;;1.30;;
5811;SDS011;2932;52.400;9.558;2023-07-13T13:34:24;1.35;;;1.00;;
5811;SDS011;2932;52.400;9.558;2023-07-13T13:36:50;3.50;;;1.60;;
5811;SDS011;2932;52.400;9.558;2023-07-13T13:39:21;3.65;;;1.08;;
5811;SDS011;2932;52.400;9.558;2023-07-13T13:41:49;1.20;;;1.10;;
5811;SDS011;2932;52.400;9.558;2023-07-13T13:44:17;3.30;;;1.10;;
5811;SDS011;2932;52.400;9.558;2023-07-13T13:46:44;1.48;;;1.02;;
5811;SDS011;2932;52.400;9.558;2023-07-13T13:49:13;1.73;;;1.00;;
5811;SDS011;2932;52.400;9.558;2023-07-13T13:51:41;3.03;;;1.10;;
5811;SDS011;2932;52.400;9.558;2023-07-13T13:54:09;2.42;;;1.00;;
5811;SDS011;2932;52.400;9.558;2023-07-13T13:56:36;1.60;;;1.17;;
5811;SDS011;2932;52.400;9.558;2023-07-13T13:59:02;5.93;;;1.95;;
5811;SDS011;2932;52.400;9.558;2023-07-13T14:01:27;2.90;;;2.60;;
5811;SDS011;2932;52.400;9.558;2023-07-13T14:03:54;2.10;;;1.65;;
5811;SDS011;2932;52.400;9.558;2023-07-13T14:06:20;1.60;;;1.48;;
5811;SDS011;2932;52.400;9.558;2023-07-13T14:08:45;1.42;;;1.20;;
5811;SDS011;2932;52.400;9.558;2023-07-13T14:11:13;1.45;;;0.90;;
5811;SDS011;2932;52.400;9.558;2023-07-13T14:13:42;1.17;;;0.95;;
5811;SDS011;2932;52.400;9.558;2023-07-13T14:16:12;2.42;;;1.02;;
5811;SDS011;2932;52.400;9.558;2023-07-13T14:18:46;0.85;;;0.80;;
5811;SDS011;2932;52.400;9.558;2023-07-13T14:21:12;1.45;;;1.10;;
5811;SDS011;2932;52.400;9.558;2023-07-13T14:23:39;2.35;;;1.10;;
5811;SDS011;2932;52.400;9.558;2023-07-13T14:26:12;2.60;;;1.02;;
5811;SDS011;2932;52.400;9.558;2023-07-13T14:28:44;2.58;;;1.50;;
5811;SDS011;2932;52.400;9.558;2023-07-13T14:31:12;1.98;;;1.30;;
5811;SDS011;2932;52.400;9.558;2023-07-13T14:33:38;3.30;;;1.58;;
5811;SDS011;2932;52.400;9.558;2023-07-13T14:36:21;3.10;;;1.30;;
5811;SDS011;2932;52.400;9.558;2023-07-13T14:38:54;2.28;;;1.40;;
5811;SDS011;2932;52.400;9.558;2023-07-13T14:41:19;3.72;;;1.70;;
5811;SDS011;2932;52.400;9.558;2023-07-13T14:43:45;3.85;;;2.08;;
5811;SDS011;2932;52.400;9.558;2023-07-13T14:46:30;3.40;;;1.70;;
5811;SDS011;2932;52.400;9.558;2023-07-13T14:49:03;2.75;;;1.80;;
5811;SDS011;2932;52.400;9.558;2023-07-13T14:51:31;1.98;;;1.70;;
5811;SDS011;2932;52.400;9.558;2023-07-13T14:54:02;3.17;;;1.60;;
5811;SDS011;2932;52.400;9.558;2023-07-13T14:56:28;2.90;;;1.67;;
5811;SDS011;2932;52.400;9.558;2023-07-13T14:58:53;3.05;;;1.80;;
5811;SDS011;2932;52.400;9.558;2023-07-13T15:01:18;2.20;;;1.70;;
5811;SDS011;2932;52.400;9.558;2023-07-13T15:03:47;2.08;;;1.65;;
5811;SDS011;2932;52.400;9.558;2023-07-13T15:06:14;2.58;;;1.67;;
5811;SDS011;2932;52.400;9.558;2023-07-13T15:08:40;3.05;;;1.65;;
5811;SDS011;2932;52.400;9.558;2023-07-13T15:11:09;4.95;;;1.52;;
5811;SDS011;2932;52.400;9.558;2023-07-13T15:13:37;3.22;;;1.30;;
5811;SDS011;2932;52.400;9.558;2023-07-13T15:16:04;2.42;;;1.77;;
5811;SDS011;2932;52.400;9.558;2023-07-13T15:18:35;2.65;;;1.65;;
5811;SDS011;2932;52.400;9.558;2023-07-13T15:21:03;2.33;;;1.50;;
5811;SDS011;2932;52.400;9.558;2023-07-13T15:23:29;1.58;;;1.40;;
5811;SDS011;2932;52.400;9.558;2023-07-13T15:25:54;1.92;;;1.30;;
5811;SDS011;2932;52.400;9.558;2023-07-13T15:28:19;3.00;;;1.45;;
5811;SDS011;2932;52.400;9.558;2023-07-13T15:30:45;4.28;;;1.40;;
5811;SDS011;2932;52.400;9.558;2023-07-13T15:33:24;2.17;;;1.70;;
5811;SDS011;2932;52.400;9.558;2023-07-13T15:35:53;3.03;;;2.17;;
5811;SDS011;2932;52.400;9.558;2023-07-13T15:38:21;2.03;;;1.60;;
5811;SDS011;2932;52.400;9.558;2023-07-13T15:40:49;1.40;;;1.30;;
5811;SDS011;2932;52.400;9.558;2023-07-13T15:43:15;3.25;;;1.67;;
5811;SDS011;2932;52.400;9.558;2023-07-13T15:45:42;2.03;;;1.50;;
5811;SDS011;2932;52.400;9.558;2023-07-13T15:48:11;2.13;;;1.52;;
5811;SDS011;2932;52.400;9.558;2023-07-13T15:50:43;2.53;;;1.58;;
5811;SDS011;2932;52.400;9.558;2023-07-13T15:53:11;7.93;;;2.00;;
5811;SDS011;2932;52.400;9.558;2023-07-13T15:55:39;1.88;;;1.67;;
5811;SDS011;2932;52.400;9.558;2023-07-13T15:58:05;2.85;;;1.42;;
5811;SDS011;2932;52.400;9.558;2023-07-13T16:00:34;1.90;;;1.67;;
5811;SDS011;2932;52.400;9.558;2023-07-13T16:03:00;2.22;;;1.60;;